sensor_id;sensor_type;location;lat;lon;timestamp;P1;durP1;ratioP1;P2;durP2;ratioP2
22250;SDS011;59348;52.158;5.588;2023-04-15T00:01:08;8.57;;;5.55;;
22250;SDS011;59348;52.158;5.588;2023-04-15T00:03:37;8.38;;;5.13;;
22250;SDS011;59348;52.158;5.588;2023-04-15T00:06:04;9.38;;;5.22;;
22250;SDS011;59348;52.158;5.588;2023-04-15T00:08:31;8.90;;;5.35;;
22250;SDS011;59348;52.158;5.588;2023-04-15T00:10:58;7.63;;;5.20;;
22250;SDS011;59348;52.158;5.588;2023-04-15T00:13:29;10.52;;;5.43;;
22250;SDS011;59348;52.158;5.588;2023-04-15T00:15:57;8.35;;;5.60;;
22250;SDS011;59348;52.158;5.588;2023-04-15T00:18:24;8.77;;;5.43;;
22250;SDS011;59348;52.158;5.588;2023-04-15T00:20:53;10.63;;;5.50;;
22250;SDS011;59348;52.158;5.588;2023-04-15T00:23:20;8.48;;;5.25;;
22250;SDS011;59348;52.158;5.588;2023-04-15T00:25:47;8.27;;;4.70;;
22250;SDS011;59348;52.158;5.588;2023-04-15T00:28:15;9.63;;;5.40;;
22250;SDS011;59348;52.158;5.588;2023-04-15T00:30:42;11.15;;;5.78;;
22250;SDS011;59348;52.158;5.588;2023-04-15T00:33:09;11.65;;;5.18;;
22250;SDS011;59348;52.158;5.588;2023-04-15T00:35:37;9.00;;;5.20;;
22250;SDS011;59348;52.158;5.588;2023-04-15T00:38:05;11.48;;;5.35;;
22250;SDS011;59348;52.158;5.588;2023-04-15T00:40:33;8.43;;;5.25;;
22250;SDS011;59348;52.158;5.588;2023-04-15T00:43:00;9.75;;;5.18;;
22250;SDS011;59348;52.158;5.588;2023-04-15T00:45:28;13.02;;;5.35;;
22250;SDS011;59348;52.158;5.588;2023-04-15T00:47:55;10.95;;;5.30;;
22250;SDS011;59348;52.158;5.588;2023-04-15T00:50:23;6.72;;;5.03;;
22250;SDS011;59348;52.158;5.588;2023-04-15T00:52:50;9.63;;;5.47;;
22250;SDS011;59348;52.158;5.588;2023-04-15T00:55:18;13.63;;;6.03;;
22250;SDS011;59348;52.158;5.588;2023-04-15T00:57:46;7.47;;;5.13;;
22250;SDS011;59348;52.158;5.588;2023-04-15T01:00:13;8.57;;;5.07;;
22250;SDS011;59348;52.158;5.588;2023-04-15T01:02:40;9.77;;;5.38;;
22250;SDS011;59348;52.158;5.588;2023-04-15T01:05:08;10.75;;;5.65;;
22250;SDS011;59348;52.158;5.588;2023-04-15T01:07:35;9.25;;;5.38;;
22250;SDS011;59348;52.158;5.588;2023-04-15T01:10:02;9.50;;;5.38;;
22250;SDS011;59348;52.158;5.588;2023-04-15T01:12:31;9.07;;;5.20;;
22250;SDS011;59348;52.158;5.588;2023-04-15T01:15:00;10.82;;;5.20;;
22250;SDS011;59348;52.158;5.588;2023-04-15T01:17:28;7.93;;;5.38;;
22250;SDS011;59348;52.158;5.588;2023-04-15T01:19:55;7.82;;;5.35;;
22250;SDS011;59348;52.158;5.588;2023-04-15T01:22:23;9.57;;;4.97;;
22250;SDS011;59348;52.158;5.588;2023-04-15T01:24:53;9.77;;;5.43;;
22250;SDS011;59348;52.158;5.588;2023-04-15T01:27:22;10.15;;;5.32;;
22250;SDS011;59348;52.158;5.588;2023-04-15T01:29:50;10.70;;;5.70;;
22250;SDS011;59348;52.158;5.588;2023-04-15T01:32:18;10.10;;;5.70;;
22250;SDS011;59348;52.158;5.588;2023-04-15T01:34:45;9.95;;;5.20;;
22250;SDS011;59348;52.158;5.588;2023-04-15T01:37:12;9.90;;;5.53;;
22250;SDS011;59348;52.158;5.588;2023-04-15T01:39:39;8.13;;;5.25;;
22250;SDS011;59348;52.158;5.588;2023-04-15T01:42:06;8.30;;;5.00;;
22250;SDS011;59348;52.158;5.588;2023-04-15T01:44:35;8.25;;;5.35;;
22250;SDS011;59348;52.158;5.588;2023-04-15T01:47:02;8.95;;;5.25;;
22250;SDS011;59348;52.158;5.588;2023-04-15T01:49:31;11.68;;;5.15;;
22250;SDS011;59348;52.158;5.588;2023-04-15T01:51:58;8.07;;;5.20;;
22250;SDS011;59348;52.158;5.588;2023-04-15T01:54:25;11.48;;;5.47;;
22250;SDS011;59348;52.158;5.588;2023-04-15T01:56:52;7.30;;;4.90;;
22250;SDS011;59348;52.158;5.588;2023-04-15T01:59:20;8.95;;;5.30;;
22250;SDS011;59348;52.158;5.588;2023-04-15T02:01:49;11.57;;;5.22;;
22250;SDS011;59348;52.158;5.588;2023-04-15T02:04:16;9.60;;;5.05;;
22250;SDS011;59348;52.158;5.588;2023-04-15T02:06:44;11.30;;;5.30;;
22250;SDS011;59348;52.158;5.588;2023-04-15T02:09:11;8.10;;;5.20;;
22250;SDS011;59348;52.158;5.588;2023-04-15T02:11:38;7.45;;;4.90;;
22250;SDS011;59348;52.158;5.588;2023-04-15T02:14:05;8.50;;;4.70;;
22250;SDS011;59348;52.158;5.588;2023-04-15T02:16:33;7.55;;;4.82;;
22250;SDS011;59348;52.158;5.588;2023-04-15T02:19:02;7.85;;;4.90;;
22250;SDS011;59348;52.158;5.588;2023-04-15T02:21:29;8.52;;;4.55;;
22250;SDS011;59348;52.158;5.588;2023-04-15T02:23:56;10.57;;;5.28;;
22250;SDS011;59348;52.158;5.588;2023-04-15T02:26:23;8.98;;;5.20;;
22250;SDS011;59348;52.158;5.588;2023-04-15T02:28:50;9.50;;;4.97;;
22250;SDS011;59348;52.158;5.588;2023-04-15T02:31:18;7.88;;;5.15;;
22250;SDS011;59348;52.158;5.588;2023-04-15T02:33:45;8.90;;;5.03;;
22250;SDS011;59348;52.158;5.588;2023-04-15T02:36:14;12.13;;;5.25;;
22250;SDS011;59348;52.158;5.588;2023-04-15T02:38:41;10.15;;;5.60;;
22250;SDS011;59348;52.158;5.588;2023-04-15T02:41:08;9.35;;;5.30;;
22250;SDS011;59348;52.158;5.588;2023-04-15T02:43:36;11.68;;;5.50;;
22250;SDS011;59348;52.158;5.588;2023-04-15T02:46:04;8.38;;;5.35;;
22250;SDS011;59348;52.158;5.588;2023-04-15T02:48:31;9.82;;;5.82;;
22250;SDS011;59348;52.158;5.588;2023-04-15T02:53:42;8.32;;;5.50;;
22250;SDS011;59348;52.158;5.588;2023-04-15T02:56:09;8.80;;;5.55;;
22250;SDS011;59348;52.158;5.588;2023-04-15T02:58:36;10.40;;;5.70;;
22250;SDS011;59348;52.158;5.588;2023-04-15T03:01:04;10.00;;;5.35;;
22250;SDS011;59348;52.158;5.588;2023-04-15T03:03:31;9.38;;;5.53;;
22250;SDS011;59348;52.158;5.588;2023-04-15T03:05:58;10.02;;;5.63;;
22250;SDS011;59348;52.158;5.588;2023-04-15T03:08:26;6.45;;;5.28;;
22250;SDS011;59348;52.158;5.588;2023-04-15T03:10:54;10.75;;;5.43;;
22250;SDS011;59348;52.158;5.588;2023-04-15T03:13:24;7.65;;;5.70;;
22250;SDS011;59348;52.158;5.588;2023-04-15T03:15:52;8.48;;;5.60;;
22250;SDS011;59348;52.158;5.588;2023-04-15T03:18:19;10.50;;;6.03;;
22250;SDS011;59348;52.158;5.588;2023-04-15T03:20:47;8.07;;;5.82;;
22250;SDS011;59348;52.158;5.588;2023-04-15T03:23:14;8.88;;;6.10;;
22250;SDS011;59348;52.158;5.588;2023-04-15T03:25:41;9.75;;;5.63;;
22250;SDS011;59348;52.158;5.588;2023-04-15T03:28:12;8.48;;;5.50;;
22250;SDS011;59348;52.158;5.588;2023-04-15T03:30:39;11.27;;;6.18;;
22250;SDS011;59348;52.158;5.588;2023-04-15T03:33:06;7.50;;;5.85;;
22250;SDS011;59348;52.158;5.588;2023-04-15T03:35:33;11.05;;;6.18;;
22250;SDS011;59348;52.158;5.588;2023-04-15T03:38:01;8.95;;;6.10;;
22250;SDS011;59348;52.158;5.588;2023-04-15T03:40:28;8.55;;;5.85;;
22250;SDS011;59348;52.158;5.588;2023-04-15T03:42:55;12.90;;;6.07;;
22250;SDS011;59348;52.158;5.588;2023-04-15T03:45:24;9.15;;;5.97;;
22250;SDS011;59348;52.158;5.588;2023-04-15T03:47:51;10.77;;;6.20;;
22250;SDS011;59348;52.158;5.588;2023-04-15T03:50:18;11.52;;;6.13;;
22250;SDS011;59348;52.158;5.588;2023-04-15T03:52:46;10.65;;;6.55;;
22250;SDS011;59348;52.158;5.588;2023-04-15T03:55:13;10.45;;;6.50;;
22250;SDS011;59348;52.158;5.588;2023-04-15T03:57:40;11.05;;;6.22;;
22250;SDS011;59348;52.158;5.588;2023-04-15T04:00:08;7.78;;;6.50;;
22250;SDS011;59348;52.158;5.588;2023-04-15T04:02:36;8.68;;;6.40;;
22250;SDS011;59348;52.158;5.588;2023-04-15T04:05:04;9.35;;;6.45;;
22250;SDS011;59348;52.158;5.588;2023-04-15T04:07:31;11.32;;;6.70;;
22250;SDS011;59348;52.158;5.588;2023-04-15T04:09:58;9.82;;;6.85;;
22250;SDS011;59348;52.158;5.588;2023-04-15T04:12:25;10.70;;;6.85;;
22250;SDS011;59348;52.158;5.588;2023-04-15T04:14:53;13.80;;;6.80;;
22250;SDS011;59348;52.158;5.588;2023-04-15T04:17:20;11.07;;;6.55;;
22250;SDS011;59348;52.158;5.588;2023-04-15T04:19:48;10.60;;;7.05;;
22250;SDS011;59348;52.158;5.588;2023-04-15T04:22:16;10.63;;;6.88;;
22250;SDS011;59348;52.158;5.588;2023-04-15T04:24:43;10.93;;;6.78;;
22250;SDS011;59348;52.158;5.588;2023-04-15T04:27:10;10.63;;;6.60;;
22250;SDS011;59348;52.158;5.588;2023-04-15T04:29:37;11.13;;;6.97;;
22250;SDS011;59348;52.158;5.588;2023-04-15T04:32:05;10.73;;;6.75;;
22250;SDS011;59348;52.158;5.588;2023-04-15T04:34:32;13.07;;;7.15;;
22250;SDS011;59348;52.158;5.588;2023-04-15T04:37:01;11.02;;;6.70;;
22250;SDS011;59348;52.158;5.588;2023-04-15T04:39:28;11.02;;;7.00;;
22250;SDS011;59348;52.158;5.588;2023-04-15T04:41:55;10.68;;;6.40;;
22250;SDS011;59348;52.158;5.588;2023-04-15T04:44:22;9.45;;;6.43;;
22250;SDS011;59348;52.158;5.588;2023-04-15T04:46:49;10.80;;;6.82;;
22250;SDS011;59348;52.158;5.588;2023-04-15T04:49:16;9.98;;;7.35;;
22250;SDS011;59348;52.158;5.588;2023-04-15T04:51:43;12.30;;;7.18;;
22250;SDS011;59348;52.158;5.588;2023-04-15T04:54:12;12.55;;;7.20;;
22250;SDS011;59348;52.158;5.588;2023-04-15T04:56:40;10.90;;;7.05;;
22250;SDS011;59348;52.158;5.588;2023-04-15T04:59:07;13.00;;;7.00;;
22250;SDS011;59348;52.158;5.588;2023-04-15T05:01:34;13.45;;;7.05;;
22250;SDS011;59348;52.158;5.588;2023-04-15T05:04:01;9.95;;;6.88;;
22250;SDS011;59348;52.158;5.588;2023-04-15T05:06:29;9.80;;;6.90;;
22250;SDS011;59348;52.158;5.588;2023-04-15T05:08:57;10.82;;;7.03;;
22250;SDS011;59348;52.158;5.588;2023-04-15T05:11:26;22.02;;;7.93;;
22250;SDS011;59348;52.158;5.588;2023-04-15T05:13:53;11.23;;;7.03;;
22250;SDS011;59348;52.158;5.588;2023-04-15T05:16:20;10.65;;;7.30;;
22250;SDS011;59348;52.158;5.588;2023-04-15T05:18:49;10.10;;;7.35;;
22250;SDS011;59348;52.158;5.588;2023-04-15T05:21:17;13.02;;;7.50;;
22250;SDS011;59348;52.158;5.588;2023-04-15T05:23:44;15.57;;;7.90;;
22250;SDS011;59348;52.158;5.588;2023-04-15T05:26:11;11.05;;;7.55;;
22250;SDS011;59348;52.158;5.588;2023-04-15T05:28:40;13.98;;;7.85;;
22250;SDS011;59348;52.158;5.588;2023-04-15T05:31:07;14.95;;;7.50;;
22250;SDS011;59348;52.158;5.588;2023-04-15T05:33:34;17.15;;;7.68;;
22250;SDS011;59348;52.158;5.588;2023-04-15T05:36:01;10.57;;;7.88;;
22250;SDS011;59348;52.158;5.588;2023-04-15T05:38:28;12.52;;;7.50;;
22250;SDS011;59348;52.158;5.588;2023-04-15T05:40:55;13.82;;;7.80;;
22250;SDS011;59348;52.158;5.588;2023-04-15T05:43:23;11.30;;;7.90;;
22250;SDS011;59348;52.158;5.588;2023-04-15T05:45:51;16.60;;;8.00;;
22250;SDS011;59348;52.158;5.588;2023-04-15T05:48:18;11.73;;;7.82;;
22250;SDS011;59348;52.158;5.588;2023-04-15T05:50:46;16.45;;;8.00;;
22250;SDS011;59348;52.158;5.588;2023-04-15T05:53:13;19.75;;;8.07;;
22250;SDS011;59348;52.158;5.588;2023-04-15T05:55:40;13.55;;;7.93;;
22250;SDS011;59348;52.158;5.588;2023-04-15T05:58:07;14.90;;;8.60;;
22250;SDS011;59348;52.158;5.588;2023-04-15T06:00:35;14.80;;;8.48;;
22250;SDS011;59348;52.158;5.588;2023-04-15T06:03:04;13.05;;;8.90;;
22250;SDS011;59348;52.158;5.588;2023-04-15T06:05:31;14.00;;;9.05;;
22250;SDS011;59348;52.158;5.588;2023-04-15T06:07:59;13.43;;;8.55;;
22250;SDS011;59348;52.158;5.588;2023-04-15T06:10:27;14.10;;;9.07;;
22250;SDS011;59348;52.158;5.588;2023-04-15T06:12:55;13.77;;;9.23;;
22250;SDS011;59348;52.158;5.588;2023-04-15T06:15:22;12.48;;;9.18;;
22250;SDS011;59348;52.158;5.588;2023-04-15T06:17:50;16.05;;;9.77;;
22250;SDS011;59348;52.158;5.588;2023-04-15T06:20:18;15.07;;;9.75;;
22250;SDS011;59348;52.158;5.588;2023-04-15T06:22:45;14.27;;;9.90;;
22250;SDS011;59348;52.158;5.588;2023-04-15T06:25:13;15.00;;;9.93;;
22250;SDS011;59348;52.158;5.588;2023-04-15T06:27:40;13.73;;;10.13;;
22250;SDS011;59348;52.158;5.588;2023-04-15T06:30:07;14.82;;;9.95;;
22250;SDS011;59348;52.158;5.588;2023-04-15T06:32:34;15.00;;;10.23;;
22250;SDS011;59348;52.158;5.588;2023-04-15T06:35:02;13.30;;;9.77;;
22250;SDS011;59348;52.158;5.588;2023-04-15T06:37:30;13.60;;;9.88;;
22250;SDS011;59348;52.158;5.588;2023-04-15T06:39:58;13.70;;;9.85;;
22250;SDS011;59348;52.158;5.588;2023-04-15T06:42:25;11.43;;;9.40;;
22250;SDS011;59348;52.158;5.588;2023-04-15T06:44:52;14.48;;;9.93;;
22250;SDS011;59348;52.158;5.588;2023-04-15T06:47:19;13.27;;;9.15;;
22250;SDS011;59348;52.158;5.588;2023-04-15T06:49:46;11.85;;;9.15;;
22250;SDS011;59348;52.158;5.588;2023-04-15T06:52:14;12.25;;;8.93;;
22250;SDS011;59348;52.158;5.588;2023-04-15T06:54:43;12.43;;;9.20;;
22250;SDS011;59348;52.158;5.588;2023-04-15T06:57:10;14.82;;;9.88;;
22250;SDS011;59348;52.158;5.588;2023-04-15T06:59:38;14.38;;;11.13;;
22250;SDS011;59348;52.158;5.588;2023-04-15T07:02:06;16.05;;;10.98;;
22250;SDS011;59348;52.158;5.588;2023-04-15T07:04:36;14.65;;;10.43;;
22250;SDS011;59348;52.158;5.588;2023-04-15T07:07:04;15.10;;;11.07;;
22250;SDS011;59348;52.158;5.588;2023-04-15T07:09:32;13.40;;;10.10;;
22250;SDS011;59348;52.158;5.588;2023-04-15T07:12:00;13.13;;;10.68;;
22250;SDS011;59348;52.158;5.588;2023-04-15T07:14:27;13.52;;;10.30;;
22250;SDS011;59348;52.158;5.588;2023-04-15T07:16:55;13.60;;;9.95;;
22250;SDS011;59348;52.158;5.588;2023-04-15T07:19:22;14.82;;;10.10;;
22250;SDS011;59348;52.158;5.588;2023-04-15T07:21:49;13.05;;;9.43;;
22250;SDS011;59348;52.158;5.588;2023-04-15T07:24:17;11.43;;;8.27;;
22250;SDS011;59348;52.158;5.588;2023-04-15T07:26:44;12.65;;;7.93;;
22250;SDS011;59348;52.158;5.588;2023-04-15T07:29:13;9.63;;;7.55;;
22250;SDS011;59348;52.158;5.588;2023-04-15T07:31:41;9.48;;;7.28;;
22250;SDS011;59348;52.158;5.588;2023-04-15T07:34:08;12.82;;;8.30;;
22250;SDS011;59348;52.158;5.588;2023-04-15T07:36:35;12.25;;;7.38;;
22250;SDS011;59348;52.158;5.588;2023-04-15T07:39:02;12.52;;;7.28;;
22250;SDS011;59348;52.158;5.588;2023-04-15T07:41:30;9.65;;;6.75;;
22250;SDS011;59348;52.158;5.588;2023-04-15T07:43:57;10.35;;;6.43;;
22250;SDS011;59348;52.158;5.588;2023-04-15T07:46:25;7.93;;;6.45;;
22250;SDS011;59348;52.158;5.588;2023-04-15T07:48:53;8.35;;;6.60;;
22250;SDS011;59348;52.158;5.588;2023-04-15T07:51:20;8.15;;;6.22;;
22250;SDS011;59348;52.158;5.588;2023-04-15T07:53:47;9.20;;;6.97;;
22250;SDS011;59348;52.158;5.588;2023-04-15T07:56:15;9.10;;;6.82;;
22250;SDS011;59348;52.158;5.588;2023-04-15T07:58:43;10.65;;;7.00;;
22250;SDS011;59348;52.158;5.588;2023-04-15T08:01:10;9.68;;;6.47;;
22250;SDS011;59348;52.158;5.588;2023-04-15T08:03:39;9.60;;;6.93;;
22250;SDS011;59348;52.158;5.588;2023-04-15T08:06:07;8.48;;;6.10;;
22250;SDS011;59348;52.158;5.588;2023-04-15T08:08:34;8.77;;;6.50;;
22250;SDS011;59348;52.158;5.588;2023-04-15T08:11:01;13.98;;;6.32;;
22250;SDS011;59348;52.158;5.588;2023-04-15T08:13:28;9.38;;;6.43;;
22250;SDS011;59348;52.158;5.588;2023-04-15T08:18:39;7.85;;;6.18;;
22250;SDS011;59348;52.158;5.588;2023-04-15T08:21:06;6.95;;;5.25;;
22250;SDS011;59348;52.158;5.588;2023-04-15T08:23:34;7.70;;;5.72;;
22250;SDS011;59348;52.158;5.588;2023-04-15T08:26:01;6.80;;;5.20;;
22250;SDS011;59348;52.158;5.588;2023-04-15T08:28:29;6.75;;;5.05;;
22250;SDS011;59348;52.158;5.588;2023-04-15T08:30:56;8.25;;;5.53;;
22250;SDS011;59348;52.158;5.588;2023-04-15T08:33:23;8.10;;;5.22;;
22250;SDS011;59348;52.158;5.588;2023-04-15T08:35:53;6.90;;;5.55;;
22250;SDS011;59348;52.158;5.588;2023-04-15T08:38:20;6.40;;;4.57;;
22250;SDS011;59348;52.158;5.588;2023-04-15T08:40:47;5.57;;;4.22;;
22250;SDS011;59348;52.158;5.588;2023-04-15T08:43:17;5.15;;;4.45;;
22250;SDS011;59348;52.158;5.588;2023-04-15T08:45:45;5.03;;;3.95;;
22250;SDS011;59348;52.158;5.588;2023-04-15T08:48:13;6.00;;;4.32;;
22250;SDS011;59348;52.158;5.588;2023-04-15T08:50:41;5.43;;;3.70;;
22250;SDS011;59348;52.158;5.588;2023-04-15T08:53:10;5.95;;;4.13;;
22250;SDS011;59348;52.158;5.588;2023-04-15T08:55:42;5.35;;;4.43;;
22250;SDS011;59348;52.158;5.588;2023-04-15T08:58:10;5.25;;;4.03;;
22250;SDS011;59348;52.158;5.588;2023-04-15T09:00:38;4.93;;;4.35;;
22250;SDS011;59348;52.158;5.588;2023-04-15T09:03:06;6.15;;;4.15;;
22250;SDS011;59348;52.158;5.588;2023-04-15T09:05:34;5.95;;;4.07;;
22250;SDS011;59348;52.158;5.588;2023-04-15T09:08:01;4.30;;;3.90;;
22250;SDS011;59348;52.158;5.588;2023-04-15T09:10:31;5.47;;;4.18;;
22250;SDS011;59348;52.158;5.588;2023-04-15T09:12:59;6.38;;;4.40;;
22250;SDS011;59348;52.158;5.588;2023-04-15T09:15:26;6.60;;;4.50;;
22250;SDS011;59348;52.158;5.588;2023-04-15T09:17:54;6.38;;;4.32;;
22250;SDS011;59348;52.158;5.588;2023-04-15T09:20:21;4.63;;;3.88;;
22250;SDS011;59348;52.158;5.588;2023-04-15T09:22:49;6.88;;;4.50;;
22250;SDS011;59348;52.158;5.588;2023-04-15T09:25:24;4.75;;;3.42;;
22250;SDS011;59348;52.158;5.588;2023-04-15T09:27:54;4.82;;;3.10;;
22250;SDS011;59348;52.158;5.588;2023-04-15T09:30:21;3.40;;;2.42;;
22250;SDS011;59348;52.158;5.588;2023-04-15T09:32:49;6.78;;;3.00;;
22250;SDS011;59348;52.158;5.588;2023-04-15T09:35:16;4.57;;;2.63;;
22250;SDS011;59348;52.158;5.588;2023-04-15T09:37:44;5.68;;;2.70;;
22250;SDS011;59348;52.158;5.588;2023-04-15T09:40:11;3.38;;;2.85;;
22250;SDS011;59348;52.158;5.588;2023-04-15T09:45:22;3.70;;;2.50;;
22250;SDS011;59348;52.158;5.588;2023-04-15T09:47:50;3.20;;;2.20;;
22250;SDS011;59348;52.158;5.588;2023-04-15T09:50:17;2.50;;;1.88;;
22250;SDS011;59348;52.158;5.588;2023-04-15T09:52:45;2.85;;;2.10;;
22250;SDS011;59348;52.158;5.588;2023-04-15T09:55:12;4.43;;;2.50;;
22250;SDS011;59348;52.158;5.588;2023-04-15T09:57:40;3.63;;;2.20;;
22250;SDS011;59348;52.158;5.588;2023-04-15T10:00:08;3.88;;;2.47;;
22250;SDS011;59348;52.158;5.588;2023-04-15T10:02:37;5.75;;;2.80;;
22250;SDS011;59348;52.158;5.588;2023-04-15T10:05:06;2.90;;;2.47;;
22250;SDS011;59348;52.158;5.588;2023-04-15T10:07:33;3.45;;;2.63;;
22250;SDS011;59348;52.158;5.588;2023-04-15T10:10:01;4.75;;;3.00;;
22250;SDS011;59348;52.158;5.588;2023-04-15T10:12:29;3.70;;;3.30;;
22250;SDS011;59348;52.158;5.588;2023-04-15T10:14:58;5.25;;;3.70;;
22250;SDS011;59348;52.158;5.588;2023-04-15T10:17:26;7.80;;;4.85;;
22250;SDS011;59348;52.158;5.588;2023-04-15T10:19:55;9.80;;;4.95;;
22250;SDS011;59348;52.158;5.588;2023-04-15T10:22:22;8.18;;;4.45;;
22250;SDS011;59348;52.158;5.588;2023-04-15T10:24:50;8.45;;;4.45;;
22250;SDS011;59348;52.158;5.588;2023-04-15T10:27:18;4.55;;;3.20;;
22250;SDS011;59348;52.158;5.588;2023-04-15T10:29:46;4.22;;;3.17;;
22250;SDS011;59348;52.158;5.588;2023-04-15T10:32:14;8.63;;;4.60;;
22250;SDS011;59348;52.158;5.588;2023-04-15T10:34:42;11.93;;;5.68;;
22250;SDS011;59348;52.158;5.588;2023-04-15T10:37:10;8.30;;;4.40;;
22250;SDS011;59348;52.158;5.588;2023-04-15T10:39:38;9.85;;;4.47;;
22250;SDS011;59348;52.158;5.588;2023-04-15T10:42:07;5.57;;;3.70;;
22250;SDS011;59348;52.158;5.588;2023-04-15T10:44:35;4.45;;;3.50;;
22250;SDS011;59348;52.158;5.588;2023-04-15T10:47:05;4.82;;;3.65;;
22250;SDS011;59348;52.158;5.588;2023-04-15T10:49:34;3.80;;;3.40;;
22250;SDS011;59348;52.158;5.588;2023-04-15T10:52:10;6.10;;;4.00;;
22250;SDS011;59348;52.158;5.588;2023-04-15T10:54:37;8.40;;;3.33;;
22250;SDS011;59348;52.158;5.588;2023-04-15T10:57:06;4.65;;;3.40;;
22250;SDS011;59348;52.158;5.588;2023-04-15T10:59:35;3.80;;;3.25;;
22250;SDS011;59348;52.158;5.588;2023-04-15T11:02:03;3.65;;;3.00;;
22250;SDS011;59348;52.158;5.588;2023-04-15T11:07:14;3.22;;;2.90;;
22250;SDS011;59348;52.158;5.588;2023-04-15T11:09:42;4.47;;;2.97;;
22250;SDS011;59348;52.158;5.588;2023-04-15T11:12:09;4.43;;;3.00;;
22250;SDS011;59348;52.158;5.588;2023-04-15T11:14:38;4.70;;;3.40;;
22250;SDS011;59348;52.158;5.588;2023-04-15T11:17:07;3.75;;;3.30;;
22250;SDS011;59348;52.158;5.588;2023-04-15T11:19:35;4.05;;;2.72;;
22250;SDS011;59348;52.158;5.588;2023-04-15T11:22:06;3.30;;;2.70;;
22250;SDS011;59348;52.158;5.588;2023-04-15T11:24:35;4.82;;;2.78;;
22250;SDS011;59348;52.158;5.588;2023-04-15T11:27:02;4.93;;;2.60;;
22250;SDS011;59348;52.158;5.588;2023-04-15T11:29:30;3.88;;;2.65;;
22250;SDS011;59348;52.158;5.588;2023-04-15T11:32:04;5.57;;;2.70;;
22250;SDS011;59348;52.158;5.588;2023-04-15T11:34:32;3.65;;;2.83;;
22250;SDS011;59348;52.158;5.588;2023-04-15T11:37:02;3.00;;;2.70;;
22250;SDS011;59348;52.158;5.588;2023-04-15T11:39:30;4.70;;;3.60;;
22250;SDS011;59348;52.158;5.588;2023-04-15T11:41:59;4.97;;;3.13;;
22250;SDS011;59348;52.158;5.588;2023-04-15T11:44:26;4.75;;;2.80;;
22250;SDS011;59348;52.158;5.588;2023-04-15T11:46:53;4.07;;;2.97;;
22250;SDS011;59348;52.158;5.588;2023-04-15T11:49:25;4.50;;;3.40;;
22250;SDS011;59348;52.158;5.588;2023-04-15T11:51:52;4.43;;;3.00;;
22250;SDS011;59348;52.158;5.588;2023-04-15T11:54:20;3.78;;;2.80;;
22250;SDS011;59348;52.158;5.588;2023-04-15T11:56:49;3.22;;;2.70;;
22250;SDS011;59348;52.158;5.588;2023-04-15T11:59:18;4.85;;;2.80;;
22250;SDS011;59348;52.158;5.588;2023-04-15T12:01:45;4.82;;;2.50;;
22250;SDS011;59348;52.158;5.588;2023-04-15T12:04:13;5.40;;;2.70;;
22250;SDS011;59348;52.158;5.588;2023-04-15T12:06:41;4.43;;;2.78;;
22250;SDS011;59348;52.158;5.588;2023-04-15T12:09:09;4.85;;;2.50;;
22250;SDS011;59348;52.158;5.588;2023-04-15T12:11:38;3.45;;;2.30;;
22250;SDS011;59348;52.158;5.588;2023-04-15T12:14:06;4.28;;;2.30;;
22250;SDS011;59348;52.158;5.588;2023-04-15T12:16:35;2.88;;;1.95;;
22250;SDS011;59348;52.158;5.588;2023-04-15T12:19:04;4.03;;;2.10;;
22250;SDS011;59348;52.158;5.588;2023-04-15T12:21:32;3.67;;;1.90;;
22250;SDS011;59348;52.158;5.588;2023-04-15T12:24:02;2.42;;;1.70;;
22250;SDS011;59348;52.158;5.588;2023-04-15T12:26:30;2.08;;;1.70;;
22250;SDS011;59348;52.158;5.588;2023-04-15T12:28:59;3.92;;;1.60;;
22250;SDS011;59348;52.158;5.588;2023-04-15T12:31:27;4.13;;;1.83;;
22250;SDS011;59348;52.158;5.588;2023-04-15T12:33:56;6.13;;;1.95;;
22250;SDS011;59348;52.158;5.588;2023-04-15T12:36:24;3.00;;;1.90;;
22250;SDS011;59348;52.158;5.588;2023-04-15T12:38:52;2.78;;;1.60;;
22250;SDS011;59348;52.158;5.588;2023-04-15T12:41:19;2.65;;;1.38;;
22250;SDS011;59348;52.158;5.588;2023-04-15T12:43:48;3.55;;;1.52;;
22250;SDS011;59348;52.158;5.588;2023-04-15T12:46:15;6.32;;;1.65;;
22250;SDS011;59348;52.158;5.588;2023-04-15T12:48:42;5.47;;;1.80;;
22250;SDS011;59348;52.158;5.588;2023-04-15T12:51:11;5.20;;;1.80;;
22250;SDS011;59348;52.158;5.588;2023-04-15T12:53:38;5.63;;;1.60;;
22250;SDS011;59348;52.158;5.588;2023-04-15T12:56:06;3.33;;;1.65;;
22250;SDS011;59348;52.158;5.588;2023-04-15T12:58:33;2.42;;;1.55;;
22250;SDS011;59348;52.158;5.588;2023-04-15T13:01:00;3.38;;;1.85;;
22250;SDS011;59348;52.158;5.588;2023-04-15T13:03:28;2.75;;;1.80;;
22250;SDS011;59348;52.158;5.588;2023-04-15T13:05:55;4.88;;;1.75;;
22250;SDS011;59348;52.158;5.588;2023-04-15T13:08:23;2.47;;;2.00;;
22250;SDS011;59348;52.158;5.588;2023-04-15T13:10:51;2.10;;;1.70;;
22250;SDS011;59348;52.158;5.588;2023-04-15T13:13:18;1.80;;;1.50;;
22250;SDS011;59348;52.158;5.588;2023-04-15T13:15:45;2.65;;;1.60;;
22250;SDS011;59348;52.158;5.588;2023-04-15T13:18:12;2.83;;;1.65;;
22250;SDS011;59348;52.158;5.588;2023-04-15T13:20:40;2.70;;;1.42;;
22250;SDS011;59348;52.158;5.588;2023-04-15T13:23:07;3.45;;;1.63;;
22250;SDS011;59348;52.158;5.588;2023-04-15T13:25:36;4.75;;;1.70;;
22250;SDS011;59348;52.158;5.588;2023-04-15T13:28:04;4.03;;;1.55;;
22250;SDS011;59348;52.158;5.588;2023-04-15T13:30:31;2.53;;;1.50;;
22250;SDS011;59348;52.158;5.588;2023-04-15T13:32:58;1.90;;;1.50;;
22250;SDS011;59348;52.158;5.588;2023-04-15T13:35:25;3.05;;;1.63;;
22250;SDS011;59348;52.158;5.588;2023-04-15T13:37:53;2.88;;;1.40;;
22250;SDS011;59348;52.158;5.588;2023-04-15T13:40:20;2.00;;;1.40;;
22250;SDS011;59348;52.158;5.588;2023-04-15T13:42:49;3.50;;;1.27;;
22250;SDS011;59348;52.158;5.588;2023-04-15T13:45:17;2.72;;;1.70;;
22250;SDS011;59348;52.158;5.588;2023-04-15T13:47:44;3.58;;;1.40;;
22250;SDS011;59348;52.158;5.588;2023-04-15T13:50:11;2.95;;;1.38;;
22250;SDS011;59348;52.158;5.588;2023-04-15T13:52:39;3.42;;;1.40;;
22250;SDS011;59348;52.158;5.588;2023-04-15T13:55:06;2.47;;;1.20;;
22250;SDS011;59348;52.158;5.588;2023-04-15T13:57:33;1.42;;;1.33;;
22250;SDS011;59348;52.158;5.588;2023-04-15T14:00:02;2.67;;;1.30;;
22250;SDS011;59348;52.158;5.588;2023-04-15T14:02:30;2.35;;;1.40;;
22250;SDS011;59348;52.158;5.588;2023-04-15T14:04:57;1.70;;;1.42;;
22250;SDS011;59348;52.158;5.588;2023-04-15T14:07:24;3.17;;;1.58;;
22250;SDS011;59348;52.158;5.588;2023-04-15T14:09:52;4.82;;;1.80;;
22250;SDS011;59348;52.158;5.588;2023-04-15T14:12:19;3.72;;;1.60;;
22250;SDS011;59348;52.158;5.588;2023-04-15T14:14:46;2.10;;;1.40;;
22250;SDS011;59348;52.158;5.588;2023-04-15T14:17:14;2.75;;;1.40;;
22250;SDS011;59348;52.158;5.588;2023-04-15T14:19:42;2.95;;;1.77;;
22250;SDS011;59348;52.158;5.588;2023-04-15T14:22:09;2.88;;;1.50;;
22250;SDS011;59348;52.158;5.588;2023-04-15T14:24:36;4.18;;;1.85;;
22250;SDS011;59348;52.158;5.588;2023-04-15T14:27:03;3.05;;;1.70;;
22250;SDS011;59348;52.158;5.588;2023-04-15T14:29:32;4.18;;;2.05;;
22250;SDS011;59348;52.158;5.588;2023-04-15T14:31:59;7.55;;;2.22;;
22250;SDS011;59348;52.158;5.588;2023-04-15T14:34:28;7.25;;;2.13;;
22250;SDS011;59348;52.158;5.588;2023-04-15T14:36:55;6.38;;;2.13;;
22250;SDS011;59348;52.158;5.588;2023-04-15T14:39:23;2.70;;;1.85;;
22250;SDS011;59348;52.158;5.588;2023-04-15T14:41:51;4.65;;;2.50;;
22250;SDS011;59348;52.158;5.588;2023-04-15T14:44:19;4.47;;;2.20;;
22250;SDS011;59348;52.158;5.588;2023-04-15T14:46:47;5.13;;;2.17;;
22250;SDS011;59348;52.158;5.588;2023-04-15T14:49:14;5.88;;;2.08;;
22250;SDS011;59348;52.158;5.588;2023-04-15T14:51:43;5.75;;;2.10;;
22250;SDS011;59348;52.158;5.588;2023-04-15T14:54:10;5.97;;;2.20;;
22250;SDS011;59348;52.158;5.588;2023-04-15T14:56:37;5.88;;;2.00;;